createdAt,value
2019-02-18T08:10:49.990Z,97.6
2019-02-18T08:12:50.127Z,77
2019-02-18T08:14:50.163Z,77
2019-02-18T08:16:50.194Z,77
2019-02-18T08:18:50.172Z,77
2019-02-18T08:20:50.258Z,77
2019-02-18T08:22:50.252Z,77
2019-02-18T08:24:50.298Z,77
2019-02-18T08:26:50.375Z,77
2019-02-18T08:28:50.403Z,77
2019-02-18T08:30:50.461Z,77
2019-02-18T08:32:50.550Z,77
2019-02-18T08:34:49.914Z,77
2019-02-18T08:36:49.957Z,77
2019-02-18T08:38:50.047Z,77
2019-02-18T08:40:50.051Z,77
2019-02-18T08:42:49.991Z,77
2019-02-18T08:44:50.011Z,77
2019-02-18T08:46:50.187Z,77
2019-02-18T08:48:50.239Z,77
2019-02-18T08:50:50.307Z,77
2019-02-18T08:52:50.248Z,77
2019-02-18T08:54:57.295Z,77
2019-02-18T08:56:50.326Z,77
2019-02-18T08:58:50.387Z,77
2019-02-18T09:00:50.407Z,76
2019-02-18T09:02:50.373Z,76
2019-02-18T09:04:49.775Z,76
2019-02-18T09:06:49.920Z,76
2019-02-18T09:08:50.016Z,76
2019-02-18T09:10:50.245Z,76
2019-02-18T09:12:50.258Z,76
2019-02-18T09:14:50.317Z,76
2019-02-18T09:16:50.415Z,76
2019-02-18T09:18:50.363Z,75
2019-02-18T09:20:50.316Z,75
2019-02-18T09:22:50.368Z,75
2019-02-18T09:24:49.905Z,74
2019-02-18T09:26:50.092Z,75
2019-02-18T09:28:50.035Z,74
2019-02-18T09:30:50.015Z,74
2019-02-18T09:32:50.105Z,74
2019-02-18T09:34:53.693Z,74
2019-02-18T09:36:49.815Z,73
2019-02-18T09:38:49.799Z,73
2019-02-18T09:40:52.040Z,73
2019-02-18T09:42:50.070Z,73
2019-02-18T09:44:50.101Z,73
2019-02-18T09:46:50.085Z,73
2019-02-18T09:48:50.097Z,71
2019-02-18T09:50:50.145Z,71
2019-02-18T09:52:50.104Z,71
2019-02-18T09:54:50.094Z,71
2019-02-18T09:56:50.234Z,70
2019-02-18T09:58:50.699Z,70
2019-02-18T10:00:50.745Z,70
2019-02-18T10:02:50.711Z,70
2019-02-18T10:04:50.137Z,70
2019-02-18T10:06:50.224Z,70
2019-02-18T10:08:50.266Z,70
2019-02-18T10:10:56.859Z,70
2019-02-18T10:12:49.806Z,70
2019-02-18T10:14:49.927Z,69
2019-02-18T10:16:50.107Z,68
2019-02-18T10:18:50.073Z,68
2019-02-18T10:20:50.153Z,68
2019-02-18T10:22:50.155Z,67
2019-02-18T10:24:51.522Z,67
2019-02-18T10:26:50.769Z,67
2019-02-18T10:28:49.801Z,67
2019-02-18T10:30:49.799Z,67
2019-02-18T10:32:49.971Z,67
2019-02-18T10:34:50.389Z,67
2019-02-18T10:36:50.436Z,67
2019-02-18T10:38:50.351Z,67
2019-02-18T10:40:50.426Z,66
2019-02-18T10:42:50.419Z,66
2019-02-18T10:44:51.232Z,66
2019-02-18T10:46:50.551Z,66
2019-02-18T10:48:50.632Z,66
2019-02-18T10:50:50.737Z,66
2019-02-18T10:52:51.034Z,65
2019-02-18T10:54:50.349Z,65
2019-02-18T10:56:50.407Z,65
2019-02-18T10:58:50.538Z,65
2019-02-18T11:00:51.956Z,65
2019-02-18T11:02:50.257Z,64
2019-02-18T11:04:50.596Z,63
2019-02-18T11:06:50.699Z,64
2019-02-18T11:08:50.750Z,64
2019-02-18T11:10:50.787Z,64
2019-02-18T11:12:49.819Z,64
2019-02-18T11:14:49.881Z,64
2019-02-18T11:16:50.061Z,64
2019-02-18T11:18:50.118Z,63
2019-02-18T11:20:50.220Z,63
2019-02-18T11:22:50.198Z,63
2019-02-18T11:24:50.407Z,63
2019-02-18T11:26:50.456Z,62
2019-02-18T11:28:50.460Z,62
2019-02-18T11:30:50.450Z,62
2019-02-18T11:32:50.592Z,62
2019-02-18T11:34:50.114Z,62
2019-02-18T11:36:50.198Z,62
2019-02-18T11:38:50.180Z,62
2019-02-18T11:40:50.414Z,62
2019-02-18T11:42:50.682Z,62
2019-02-18T11:44:50.960Z,62
2019-02-18T11:46:50.276Z,62
2019-02-18T11:48:50.398Z,62
2019-02-18T11:50:50.703Z,61
2019-02-18T11:52:50.842Z,61
2019-02-18T11:54:50.125Z,61
2019-02-18T11:56:50.439Z,61
2019-02-18T11:58:50.664Z,61
2019-02-18T12:00:50.893Z,61
2019-02-18T12:02:50.181Z,61
2019-02-18T12:04:50.793Z,61
2019-02-18T12:06:50.150Z,61
2019-02-18T12:08:50.422Z,60
2019-02-18T12:10:50.745Z,60
2019-02-18T12:12:51.018Z,60
2019-02-18T12:14:51.782Z,60
2019-02-18T12:16:50.372Z,59
2019-02-18T12:18:50.679Z,59
2019-02-18T12:20:50.884Z,59
2019-02-18T12:22:50.175Z,58
2019-02-18T12:24:50.379Z,57
2019-02-18T12:26:50.676Z,57
2019-02-18T12:28:50.905Z,57
2019-02-18T12:30:50.126Z,57
2019-02-18T12:32:50.442Z,57
2019-02-18T12:34:50.272Z,57
2019-02-18T12:36:50.605Z,57
2019-02-18T12:38:50.771Z,57
2019-02-18T12:40:50.059Z,57
2019-02-18T12:42:50.378Z,55
2019-02-18T12:44:50.649Z,56
2019-02-18T12:46:50.938Z,56
2019-02-18T12:48:50.291Z,56
2019-02-18T12:50:50.666Z,55
2019-02-18T12:52:51.255Z,55
2019-02-18T12:54:51.007Z,54
2019-02-18T12:56:50.391Z,54
2019-02-18T12:58:55.570Z,54
2019-02-18T13:00:50.928Z,54
2019-02-18T13:02:50.281Z,54
2019-02-18T13:04:50.858Z,54
2019-02-18T13:06:50.621Z,54
2019-02-18T13:08:50.883Z,54
2019-02-18T13:10:50.303Z,54
2019-02-18T13:12:50.732Z,54
2019-02-18T13:14:51.787Z,53
2019-02-18T13:16:50.474Z,53
2019-02-18T13:18:50.823Z,53
2019-02-18T13:20:50.338Z,51
2019-02-18T13:22:50.717Z,51
2019-02-18T13:24:50.996Z,52
2019-02-18T13:26:50.256Z,52
2019-02-18T13:28:50.611Z,52
2019-02-18T13:30:50.881Z,51
2019-02-18T13:32:50.385Z,52
2019-02-18T13:34:50.305Z,52
2019-02-18T13:36:51.627Z,52
2019-02-18T13:38:50.415Z,52
2019-02-18T13:40:50.682Z,51
2019-02-18T13:42:50.890Z,51
2019-02-18T13:44:52.008Z,51
2019-02-18T13:46:50.608Z,51
2019-02-18T13:48:50.099Z,51
2019-02-18T13:50:50.540Z,50
2019-02-18T13:52:50.747Z,51
2019-02-18T13:54:50.055Z,50
2019-02-18T13:56:50.390Z,50
2019-02-18T13:58:50.568Z,49
2019-02-18T14:00:50.858Z,47
2019-02-18T14:02:50.282Z,48
2019-02-18T14:04:50.976Z,48
2019-02-18T14:06:50.291Z,49
2019-02-18T14:08:50.527Z,49
2019-02-18T14:10:50.842Z,48
2019-02-18T14:12:50.201Z,47
2019-02-18T14:14:50.449Z,48
2019-02-18T14:16:50.736Z,48
2019-02-18T14:18:50.106Z,48
2019-02-18T14:20:50.335Z,48
2019-02-18T14:22:50.642Z,48
2019-02-18T14:24:50.864Z,48
2019-02-18T14:26:50.348Z,48
2019-02-18T14:28:50.566Z,48
2019-02-18T14:30:50.927Z,48
2019-02-18T14:32:50.128Z,48
2019-02-18T14:34:50.697Z,48
2019-02-18T14:36:50.114Z,48
2019-02-18T14:38:51.564Z,47
2019-02-18T14:40:51.022Z,48
2019-02-18T14:42:50.386Z,48
2019-02-18T14:44:52.563Z,48
2019-02-18T14:46:52.295Z,48
2019-02-18T14:48:50.890Z,48
2019-02-18T14:50:57.683Z,46
2019-02-18T14:52:50.993Z,46
2019-02-18T14:54:50.234Z,47
2019-02-18T14:56:50.619Z,47
2019-02-18T14:58:50.887Z,47
2019-02-18T15:00:50.280Z,47
2019-02-18T15:02:50.548Z,47
2019-02-18T15:04:50.124Z,47
2019-02-18T15:06:50.278Z,46
2019-02-18T15:08:50.369Z,47
2019-02-18T15:10:50.422Z,47
2019-02-18T15:12:50.383Z,47
2019-02-18T15:14:50.508Z,47
2019-02-18T15:16:50.565Z,47
2019-02-18T15:18:50.531Z,47
2019-02-18T15:20:50.520Z,47
2019-02-18T15:22:50.216Z,47
2019-02-18T15:24:50.319Z,47
2019-02-18T15:26:50.534Z,47
2019-02-18T15:28:50.545Z,46
2019-02-18T15:30:50.588Z,46
2019-02-18T15:32:50.899Z,47
2019-02-18T15:34:50.365Z,38.4
2019-02-18T15:36:50.485Z,38.8
2019-02-18T15:38:50.485Z,43.3
2019-02-18T15:40:51.756Z,42.9
2019-02-18T15:42:50.202Z,44.0
2019-02-18T15:44:50.195Z,49.2
2019-02-18T15:46:50.368Z,48.5
2019-02-18T15:48:51.508Z,44.0
2019-02-18T15:50:50.720Z,43.5
2019-02-18T15:52:50.803Z,48.4
2019-02-18T15:54:49.828Z,50.8
2019-02-18T15:56:51.067Z,50.8
2019-02-18T15:58:50.415Z,51.7
2019-02-18T16:00:50.458Z,50.6
2019-02-18T16:02:50.522Z,52.8
2019-02-18T16:04:50.048Z,49.3
2019-02-18T16:06:50.215Z,52.5
2019-02-18T16:08:50.357Z,55.7
2019-02-18T16:10:50.395Z,55.0
2019-02-18T16:12:51.642Z,60.2
2019-02-18T16:14:50.677Z,59.1
2019-02-18T16:16:50.803Z,61.7
2019-02-18T16:18:49.814Z,61.6
2019-02-18T16:20:49.938Z,64.0
2019-02-18T16:22:50.058Z,63.9
2019-02-18T16:24:50.168Z,63.9
2019-02-18T16:26:50.453Z,64.1
2019-02-18T16:28:50.500Z,66.1
2019-02-18T16:30:50.561Z,65.0
2019-02-18T16:32:50.727Z,65.9
2019-02-18T16:34:50.969Z,66.6
2019-02-18T16:36:50.559Z,70.0
2019-02-18T16:38:50.641Z,69.7
2019-02-18T16:40:52.082Z,71.5
2019-02-18T16:42:59.601Z,70.1
2019-02-18T16:44:50.855Z,70.1
2019-02-18T16:46:50.059Z,71.3
2019-02-18T16:48:50.357Z,70.7
2019-02-18T16:50:51.406Z,72.3
2019-02-18T16:52:50.685Z,72.3
2019-02-18T16:54:50.696Z,72.6
2019-02-18T16:56:50.058Z,74.1
2019-02-18T16:58:51.224Z,72.7
2019-02-18T17:00:58.262Z,75.1
2019-02-18T17:02:51.538Z,76.2
2019-02-18T17:04:50.135Z,75.3
2019-02-18T17:06:51.456Z,76.0
2019-02-18T17:08:50.743Z,75.8
2019-02-18T17:10:50.888Z,75.1
2019-02-18T17:12:50.049Z,75.3
2019-02-18T17:14:50.203Z,76.6
2019-02-18T17:16:50.274Z,77.5
2019-02-18T17:18:50.321Z,80.5
2019-02-18T17:20:50.465Z,80.4
2019-02-18T17:22:50.598Z,78.9
2019-02-18T17:24:50.658Z,81.3
2019-02-18T17:26:49.836Z,81.0
2019-02-18T17:28:49.920Z,82.7
2019-02-18T17:30:50.119Z,82.5
2019-02-18T17:32:50.217Z,81.6
2019-02-18T17:34:50.586Z,84.7
2019-02-18T17:36:51.418Z,84.0
2019-02-18T17:38:50.514Z,82.7
2019-02-18T17:40:50.604Z,81.4
2019-02-18T17:42:50.722Z,81.6
2019-02-18T17:44:51.024Z,81.2
2019-02-18T17:46:50.268Z,84.1
2019-02-18T17:48:50.456Z,84.1
2019-02-18T17:50:50.607Z,84.3
2019-02-18T17:52:52.028Z,84.6
2019-02-18T17:54:50.440Z,85.0
2019-02-18T17:56:50.666Z,85.0
2019-02-18T17:58:50.735Z,84.9
2019-02-18T18:00:49.855Z,84.7
2019-02-18T18:02:50.092Z,84.6
2019-02-18T18:04:50.506Z,85.1
2019-02-18T18:06:50.656Z,85.2
2019-02-18T18:08:50.801Z,84.7
2019-02-18T18:10:49.939Z,83.2
2019-02-18T18:12:50.158Z,84.5
2019-02-18T18:14:50.246Z,85.7
2019-02-18T18:16:50.380Z,85.6
2019-02-18T18:18:50.460Z,86.0
2019-02-18T18:20:50.558Z,87.1
2019-02-18T18:22:50.569Z,87.3
2019-02-18T18:24:50.633Z,87.2
2019-02-18T18:26:50.767Z,88.0
2019-02-18T18:28:49.933Z,87.7
2019-02-18T18:30:51.032Z,87.8
2019-02-18T18:32:50.297Z,88.6
2019-02-18T18:34:50.805Z,87.7
2019-02-18T18:36:50.072Z,87.8
2019-02-18T18:38:51.327Z,88.5
2019-02-18T18:40:50.641Z,87.5
2019-02-18T18:42:50.724Z,86.7
2019-02-18T18:44:50.802Z,86.8
2019-02-18T18:46:51.404Z,89.3
2019-02-18T18:48:50.759Z,89.9
2019-02-18T18:50:49.786Z,90.9
2019-02-18T18:52:49.970Z,91.0
2019-02-18T18:54:51.463Z,90.8
2019-02-18T18:56:49.944Z,91.5
2019-02-18T18:58:49.972Z,91.4
2019-02-18T19:00:50.147Z,91.3
2019-02-18T19:02:51.564Z,91.3
2019-02-18T19:04:50.300Z,91.3
2019-02-18T19:06:50.379Z,92.6
2019-02-18T19:08:50.441Z,90.7
2019-02-18T19:10:51.541Z,90.7
2019-02-18T19:12:49.989Z,92.6
2019-02-18T19:14:50.039Z,92.2
2019-02-18T19:16:50.142Z,93.1
2019-02-18T19:18:51.478Z,93.5
2019-02-18T19:20:49.928Z,92.7
2019-02-18T19:22:50.001Z,92.7
2019-02-18T19:24:50.022Z,93.0
2019-02-18T19:26:51.155Z,92.9
2019-02-18T19:28:50.451Z,93.6
2019-02-18T19:30:50.463Z,93.3
2019-02-18T19:32:50.477Z,91.3
2019-02-18T19:34:49.976Z,91.3
2019-02-18T19:36:50.224Z,91.6
2019-02-18T19:38:50.235Z,90.6
2019-02-18T19:40:50.211Z,90.7
2019-02-18T19:42:50.224Z,91.9
2019-02-18T19:44:50.225Z,92.2
2019-02-18T19:46:50.340Z,92.2
2019-02-18T19:48:50.330Z,92.0
2019-02-18T19:50:50.462Z,90.1
2019-02-18T19:52:50.576Z,90.1
2019-02-18T19:54:50.612Z,89.6
2019-02-18T19:56:50.650Z,91.1
2019-02-18T19:58:50.717Z,92.3
2019-02-18T20:00:50.789Z,93.7
2019-02-18T20:02:50.778Z,93.1
2019-02-18T20:04:50.122Z,93.7
2019-02-18T20:06:50.251Z,94.5
2019-02-18T20:08:50.325Z,93.9
2019-02-18T20:10:50.323Z,94.5
2019-02-18T20:12:50.336Z,94.0
2019-02-18T20:14:50.400Z,94.1
2019-02-18T20:16:50.436Z,93.3
2019-02-18T20:18:50.541Z,92.5
2019-02-18T20:20:50.528Z,93.9
2019-02-18T20:22:50.611Z,94.1
2019-02-18T20:24:50.686Z,94.6
2019-02-18T20:26:49.803Z,94.7
2019-02-18T20:28:49.917Z,95.2
2019-02-18T20:30:50.046Z,94.4
2019-02-18T20:32:50.080Z,94.4
2019-02-18T20:34:50.438Z,94.0
2019-02-18T20:36:50.583Z,93.5
2019-02-18T20:38:50.551Z,93.1
2019-02-18T20:40:50.623Z,93.0
2019-02-18T20:42:50.625Z,92.8
2019-02-18T20:44:52.877Z,93.3
2019-02-18T20:46:49.980Z,94.6
2019-02-18T20:48:50.106Z,94.2
2019-02-18T20:50:50.149Z,94.6
2019-02-18T20:52:51.277Z,94.7
2019-02-18T20:54:50.412Z,94.3
2019-02-18T20:56:50.592Z,95.3
2019-02-18T20:58:50.589Z,95.4
2019-02-18T21:00:51.899Z,94.6
2019-02-18T21:02:50.163Z,93.4
2019-02-18T21:04:50.509Z,92.9
2019-02-18T21:06:50.517Z,94.5
2019-02-18T21:08:51.734Z,94.5
2019-02-18T21:10:50.062Z,95.1
2019-02-18T21:12:50.082Z,94.6
2019-02-18T21:14:50.111Z,94.6
2019-02-18T21:16:51.377Z,92.9
2019-02-18T21:18:50.761Z,93.6
2019-02-18T21:20:51.647Z,94.1
2019-02-18T21:22:50.704Z,95.7
2019-02-18T21:24:50.771Z,95.6
